CheckWX is a tool to help pilots better visualize weather data.  It is not intended as a substitute for an official pre-flight weather briefing.

03:28:07 UTC

KSKA METAR
Fairchild AFB Airport
Spokane, Washington, USA
Current

30 mins ago

KSKA 060258Z 00000KT 10SM SCT041 OVC110 03/03 A3009 RMK AO2A SLP211 T00310031 55002 $
Observed
Dec-6 @ 02:58 UTC
Visibility
10 SM
Flight Rules
VFR
Cloud Levels
  • Scattered at 4,100' AGL
  • Overcast at 11,000' AGL
Temperature
C / 37°F
Dewpoint
C / 37°F
Humidity
100%
Altimeter
30.09" Hg
Pressure
1018.92 hPa
Previous

2 hours ago

KSKA 060158Z 00000KT 10SM BKN042 OVC110 03/03 A3009 RMK AO2A SLP209 T00310031 $
Observed
Dec-6 @ 01:58 UTC
Visibility
10 SM
Flight Rules
VFR
Cloud Levels
  • Broken at 4,200' AGL
  • Overcast at 11,000' AGL
Temperature
C / 37°F
Dewpoint
C / 37°F
Humidity
100%
Altimeter
30.09" Hg
Pressure
1018.92 hPa
Previous

2 hours ago

KSKA 060138Z 14003KT 10SM FEW024 OVC042 04/04 A3009 RMK AO2A SLP209 $
Observed
Dec-6 @ 01:38 UTC
Wind
  • 140° at 3 KTS
Visibility
10 SM
Flight Rules
VFR
Cloud Levels
  • Few at 2,400' AGL
  • Overcast at 4,200' AGL
Temperature
C / 39°F
Dewpoint
C / 39°F
Humidity
100%
Altimeter
30.09" Hg
Pressure
1018.92 hPa